createdAt,value
2019-03-10T00:00:36.201Z,13.00
2019-03-10T00:03:05.814Z,13.03
2019-03-10T00:05:35.378Z,13.02
2019-03-10T00:08:04.902Z,13.03
2019-03-10T00:10:34.326Z,12.92
2019-03-10T00:13:03.908Z,12.87
2019-03-10T00:15:33.337Z,12.88
2019-03-10T00:18:02.804Z,12.85
2019-03-10T00:20:32.216Z,12.81
2019-03-10T00:23:01.642Z,12.77
2019-03-10T00:25:30.995Z,12.74
2019-03-10T00:28:00.343Z,12.70
2019-03-10T00:30:29.767Z,12.58
2019-03-10T00:32:59.382Z,12.46
2019-03-10T00:35:28.787Z,12.33
2019-03-10T00:37:58.196Z,12.32
2019-03-10T00:40:51.248Z,12.21
2019-03-10T00:43:48.891Z,12.15
2019-03-10T00:46:37.582Z,12.23
2019-03-10T00:49:41.373Z,12.29
2019-03-10T00:52:25.592Z,12.26
2019-03-10T00:54:54.951Z,12.23
2019-03-10T00:57:24.298Z,12.19
2019-03-10T00:59:53.760Z,12.11
2019-03-10T01:02:23.207Z,12.02
2019-03-10T01:04:52.691Z,11.85
2019-03-10T01:07:22.126Z,11.79
2019-03-10T01:09:51.556Z,11.80
2019-03-10T01:12:21.080Z,11.76
2019-03-10T01:14:50.523Z,11.64
2019-03-10T01:17:20.188Z,11.61
2019-03-10T01:19:50.341Z,11.55
2019-03-10T01:22:20.400Z,11.48
2019-03-10T01:24:49.758Z,11.42
2019-03-10T01:27:19.217Z,11.40
2019-03-10T01:29:48.565Z,11.39
2019-03-10T01:32:32.671Z,11.37
2019-03-10T01:35:13.845Z,11.39
2019-03-10T01:37:43.280Z,11.31
2019-03-10T01:40:12.622Z,11.35
2019-03-10T01:42:42.067Z,11.28
2019-03-10T01:45:13.019Z,11.27
2019-03-10T01:47:42.384Z,11.28
2019-03-10T01:50:13.875Z,11.31
2019-03-10T01:52:43.299Z,11.36
2019-03-10T01:55:12.929Z,11.39
2019-03-10T01:57:42.395Z,11.35
2019-03-10T02:00:15.206Z,11.33
2019-03-10T02:02:44.636Z,11.27
2019-03-10T02:05:14.204Z,11.23
2019-03-10T02:07:43.782Z,11.17
2019-03-10T02:10:13.302Z,11.13
2019-03-10T02:12:42.708Z,11.11
2019-03-10T02:15:14.431Z,11.02
2019-03-10T02:17:43.953Z,10.94
2019-03-10T02:20:17.880Z,10.96
2019-03-10T02:22:47.283Z,10.94
2019-03-10T02:25:16.687Z,10.80
2019-03-10T02:27:46.046Z,10.75
2019-03-10T02:30:17.547Z,10.74
2019-03-10T02:32:46.958Z,10.67
2019-03-10T02:35:16.393Z,10.57
2019-03-10T02:37:45.804Z,10.43
2019-03-10T02:40:15.202Z,10.33
2019-03-10T02:42:44.618Z,10.28
2019-03-10T02:45:14.110Z,10.20
2019-03-10T02:47:43.481Z,10.16
2019-03-10T02:50:12.939Z,10.12
2019-03-10T02:52:42.284Z,10.03
2019-03-10T02:55:11.740Z,10.00
2019-03-10T02:57:41.125Z,10.06
2019-03-10T03:00:14.885Z,10.09
2019-03-10T03:02:44.218Z,10.13
2019-03-10T03:05:13.611Z,10.15
2019-03-10T03:07:43.041Z,10.16
2019-03-10T03:10:13.737Z,10.19
2019-03-10T03:12:43.161Z,10.13
2019-03-10T03:15:12.530Z,10.12
2019-03-10T03:17:41.934Z,10.09
2019-03-10T03:20:13.361Z,9.99
2019-03-10T03:22:42.822Z,9.86
2019-03-10T03:25:12.746Z,9.82
2019-03-10T03:27:42.155Z,9.68
2019-03-10T03:30:16.917Z,9.64
2019-03-10T03:32:46.299Z,9.60
2019-03-10T03:35:39.376Z,9.54
2019-03-10T03:38:08.869Z,9.55
2019-03-10T03:40:41.199Z,9.61
2019-03-10T03:43:10.620Z,9.68
2019-03-10T03:45:40.021Z,9.77
2019-03-10T03:48:09.372Z,9.85
2019-03-10T03:50:38.785Z,9.98
2019-03-10T03:53:08.221Z,10.06
2019-03-10T03:55:37.588Z,10.11
2019-03-10T03:58:07.023Z,10.17
2019-03-10T04:00:36.449Z,10.21
2019-03-10T04:03:05.856Z,10.21
2019-03-10T04:05:35.290Z,10.22
2019-03-10T04:08:04.650Z,10.20
2019-03-10T04:10:34.079Z,10.15
2019-03-10T04:13:03.519Z,10.16
2019-03-10T04:15:32.947Z,10.22
2019-03-10T04:18:02.314Z,10.25
2019-03-10T04:20:31.668Z,10.30
2019-03-10T04:23:01.036Z,10.30
2019-03-10T04:25:30.397Z,10.36
2019-03-10T04:27:59.765Z,10.30
2019-03-10T04:30:29.173Z,10.21
2019-03-10T04:32:58.623Z,10.29
2019-03-10T04:35:27.986Z,10.33
2019-03-10T04:37:57.401Z,10.29
2019-03-10T04:40:26.825Z,10.30
2019-03-10T04:42:56.234Z,10.28
2019-03-10T04:45:25.666Z,10.22
2019-03-10T04:47:55.107Z,10.20
2019-03-10T04:50:24.530Z,10.17
2019-03-10T04:52:53.959Z,10.23
2019-03-10T04:55:24.956Z,10.23
2019-03-10T04:58:10.804Z,10.18
2019-03-10T05:00:41.805Z,10.25
2019-03-10T05:03:11.240Z,10.39
2019-03-10T05:05:40.705Z,10.44
2019-03-10T05:08:10.073Z,10.45
2019-03-10T05:10:39.508Z,10.61
2019-03-10T05:13:08.969Z,10.64
2019-03-10T05:15:38.330Z,10.62
2019-03-10T05:18:07.759Z,10.60
2019-03-10T05:20:37.143Z,10.61
2019-03-10T05:23:27.671Z,10.69
2019-03-10T05:25:57.335Z,10.78
2019-03-10T05:28:26.972Z,10.74
2019-03-10T05:30:56.392Z,10.72
2019-03-10T05:33:25.819Z,10.86
2019-03-10T05:35:55.240Z,11.09
2019-03-10T05:38:24.668Z,11.39
2019-03-10T05:40:54.103Z,11.72
2019-03-10T05:43:23.523Z,11.96
2019-03-10T05:45:52.949Z,12.17
2019-03-10T05:48:22.307Z,12.21
2019-03-10T05:50:51.822Z,12.50
2019-03-10T05:53:21.199Z,12.78
2019-03-10T05:55:50.639Z,13.02
2019-03-10T05:58:20.063Z,13.11
2019-03-10T06:00:49.490Z,13.01
2019-03-10T06:03:18.914Z,12.97
2019-03-10T06:05:48.336Z,12.87
2019-03-10T06:08:17.758Z,12.71
2019-03-10T06:10:47.200Z,12.55
2019-03-10T06:13:16.738Z,12.41
2019-03-10T06:15:46.178Z,12.47
2019-03-10T06:18:15.596Z,12.51
2019-03-10T06:20:44.958Z,12.59
2019-03-10T06:23:14.385Z,12.86
2019-03-10T06:25:43.868Z,12.88
2019-03-10T06:28:13.298Z,13.19
2019-03-10T06:30:42.731Z,13.51
2019-03-10T06:33:12.162Z,13.91
2019-03-10T06:35:41.592Z,14.26
2019-03-10T06:38:11.005Z,14.57
2019-03-10T06:40:40.440Z,14.84
2019-03-10T06:43:09.871Z,14.97
2019-03-10T06:45:39.300Z,15.05
2019-03-10T06:48:08.728Z,15.23
2019-03-10T06:50:38.097Z,15.60
2019-03-10T06:53:07.529Z,15.94
2019-03-10T06:55:36.967Z,16.06
2019-03-10T06:58:06.407Z,16.43
2019-03-10T07:00:35.819Z,16.51
2019-03-10T07:03:05.252Z,16.59
2019-03-10T07:05:34.674Z,16.80
2019-03-10T07:08:04.154Z,17.03
2019-03-10T07:10:33.605Z,17.06
2019-03-10T07:13:03.044Z,17.16
2019-03-10T07:15:32.425Z,16.87
2019-03-10T07:18:01.853Z,16.89
2019-03-10T07:20:31.226Z,16.81
2019-03-10T07:23:00.675Z,16.79
2019-03-10T07:25:30.112Z,16.51
2019-03-10T07:28:07.101Z,16.39
2019-03-10T07:30:44.108Z,16.42
2019-03-10T07:33:17.801Z,16.45
2019-03-10T07:35:48.791Z,16.81
2019-03-10T07:38:28.783Z,16.88
2019-03-10T07:41:15.730Z,17.26
2019-03-10T07:43:52.754Z,17.56
2019-03-10T07:46:26.448Z,17.81
2019-03-10T07:49:00.435Z,18.40
2019-03-10T07:51:47.479Z,18.55
2019-03-10T07:54:36.641Z,19.07
2019-03-10T07:57:07.661Z,19.07
2019-03-10T07:59:54.858Z,19.03
2019-03-10T08:02:42.034Z,18.99
2019-03-10T08:05:30.913Z,19.46
2019-03-10T08:08:01.905Z,19.89
2019-03-10T08:10:35.877Z,20.01
2019-03-10T08:13:23.030Z,19.51
2019-03-10T08:15:54.032Z,19.38
2019-03-10T08:18:25.032Z,19.12
2019-03-10T08:21:08.152Z,19.06
2019-03-10T08:23:48.133Z,18.99
2019-03-10T08:26:19.136Z,19.08
2019-03-10T08:29:05.246Z,19.25
2019-03-10T08:31:39.234Z,19.27
2019-03-10T08:34:19.121Z,19.51
2019-03-10T08:37:05.175Z,19.80
2019-03-10T08:39:51.346Z,19.90
2019-03-10T08:42:28.378Z,20.46
2019-03-10T08:45:08.085Z,20.60
2019-03-10T08:47:51.110Z,20.38
2019-03-10T08:50:22.112Z,20.57
2019-03-10T08:52:53.117Z,20.57
2019-03-10T08:55:24.161Z,20.62
2019-03-10T08:58:01.425Z,20.53
2019-03-10T09:00:38.574Z,20.81
2019-03-10T09:03:21.673Z,20.81
2019-03-10T09:06:08.810Z,20.73
2019-03-10T09:08:39.810Z,20.81
2019-03-10T09:11:19.616Z,20.71
2019-03-10T09:13:53.585Z,20.71
2019-03-10T09:16:33.724Z,20.96
2019-03-10T09:19:20.701Z,20.76
2019-03-10T09:21:51.686Z,20.69
2019-03-10T09:24:34.798Z,20.98
2019-03-10T09:27:05.816Z,20.98
2019-03-10T09:29:39.550Z,22.00
2019-03-10T09:32:16.232Z,22.29
2019-03-10T09:34:47.224Z,22.17
2019-03-10T09:37:18.213Z,22.60
2019-03-10T09:39:58.082Z,22.01
2019-03-10T09:42:29.062Z,21.36
2019-03-10T09:45:00.063Z,20.93
2019-03-10T09:47:34.066Z,21.23
2019-03-10T09:50:10.945Z,21.17
2019-03-10T09:52:47.713Z,21.17
2019-03-10T09:55:27.693Z,20.94
2019-03-10T09:58:01.681Z,20.93
2019-03-10T10:00:35.463Z,21.50
2019-03-10T10:03:21.560Z,21.99
2019-03-10T10:05:55.374Z,21.99
2019-03-10T10:08:35.452Z,22.09
2019-03-10T10:11:12.612Z,22.31
2019-03-10T10:13:49.481Z,22.61
2019-03-10T10:16:20.469Z,22.62
2019-03-10T10:18:57.496Z,22.62
2019-03-10T10:21:31.235Z,23.12
2019-03-10T10:24:17.386Z,23.12
2019-03-10T10:26:48.383Z,23.08
2019-03-10T10:29:25.470Z,23.10
2019-03-10T10:31:59.753Z,23.10
2019-03-10T10:34:39.908Z,23.37
2019-03-10T10:37:19.870Z,23.28
2019-03-10T10:39:59.834Z,23.49
2019-03-10T10:42:33.535Z,23.49
2019-03-10T10:45:10.204Z,23.76
2019-03-10T10:47:41.193Z,23.97
2019-03-10T10:50:27.546Z,23.95
2019-03-10T10:53:07.396Z,24.04
2019-03-10T10:55:38.382Z,24.07
2019-03-10T10:58:18.268Z,24.20
2019-03-10T11:00:49.259Z,24.02
2019-03-10T11:03:22.992Z,24.21
2019-03-10T11:05:56.709Z,24.28
2019-03-10T11:08:33.143Z,23.97
2019-03-10T11:11:22.013Z,23.98
2019-03-10T11:14:09.327Z,24.25
2019-03-10T11:16:40.319Z,24.25
2019-03-10T11:19:20.395Z,24.54
2019-03-10T11:21:51.127Z,24.80
2019-03-10T11:24:27.872Z,25.11
2019-03-10T11:27:10.346Z,25.38
2019-03-10T11:29:50.483Z,25.27
2019-03-10T11:32:27.040Z,24.92
2019-03-10T11:34:58.051Z,25.22
2019-03-10T11:37:28.787Z,25.27
2019-03-10T11:40:15.795Z,25.27
2019-03-10T11:42:49.613Z,25.24
2019-03-10T11:45:26.126Z,25.42
2019-03-10T11:47:58.531Z,25.69
2019-03-10T11:50:47.465Z,24.90
2019-03-10T11:53:20.885Z,24.90
2019-03-10T11:55:54.550Z,25.07
2019-03-10T11:58:25.236Z,24.94
2019-03-10T12:00:58.639Z,24.88
2019-03-10T12:03:47.250Z,25.00
2019-03-10T12:06:23.716Z,25.00
2019-03-10T12:08:54.416Z,25.09
2019-03-10T12:11:23.535Z,25.81
2019-03-10T12:13:52.603Z,25.58
2019-03-10T12:16:21.664Z,25.38
2019-03-10T12:18:50.790Z,25.58
2019-03-10T12:21:20.153Z,25.35
2019-03-10T12:23:49.491Z,25.35
2019-03-10T12:26:18.541Z,25.24
2019-03-10T12:28:47.596Z,25.38
2019-03-10T12:31:16.660Z,25.59
2019-03-10T12:33:45.796Z,25.59
2019-03-10T12:36:15.232Z,25.88
2019-03-10T12:38:44.373Z,26.02
2019-03-10T12:41:13.513Z,26.32
2019-03-10T12:43:43.053Z,26.29
2019-03-10T12:46:12.176Z,26.09
2019-03-10T12:48:41.304Z,26.21
2019-03-10T12:51:10.443Z,25.53
2019-03-10T12:53:39.567Z,25.58
2019-03-10T12:56:08.627Z,25.41
2019-03-10T12:58:37.685Z,25.04
2019-03-10T13:01:07.086Z,25.05
2019-03-10T13:03:36.268Z,25.20
2019-03-10T13:06:05.718Z,24.98
2019-03-10T13:08:34.775Z,25.75
2019-03-10T13:11:03.909Z,25.31
2019-03-10T13:13:33.038Z,25.61
2019-03-10T13:16:02.191Z,25.89
2019-03-10T13:18:31.316Z,26.31
2019-03-10T13:21:00.438Z,26.56
2019-03-10T13:23:29.580Z,26.03
2019-03-10T13:25:58.737Z,26.22
2019-03-10T13:28:27.816Z,26.18
2019-03-10T13:30:57.010Z,26.43
2019-03-10T13:33:26.099Z,26.78
2019-03-10T13:35:57.026Z,26.85
2019-03-10T13:38:26.162Z,26.92
2019-03-10T13:40:55.224Z,26.35
2019-03-10T13:43:24.366Z,26.53
2019-03-10T13:45:53.501Z,26.63
2019-03-10T13:48:22.632Z,26.64
2019-03-10T13:50:51.774Z,26.42
2019-03-10T13:53:20.909Z,26.57
2019-03-10T13:55:52.202Z,26.50
2019-03-10T13:58:22.844Z,26.70
2019-03-10T14:00:52.212Z,26.30
2019-03-10T14:03:21.281Z,26.30
2019-03-10T14:05:50.426Z,26.22
2019-03-10T14:08:19.555Z,26.20
2019-03-10T14:10:48.758Z,26.08
2019-03-10T14:13:17.893Z,25.76
2019-03-10T14:15:47.045Z,26.01
2019-03-10T14:18:16.106Z,26.07
2019-03-10T14:20:45.169Z,26.03
2019-03-10T14:23:14.594Z,26.23
2019-03-10T14:25:43.721Z,26.34
2019-03-10T14:28:12.786Z,26.30
2019-03-10T14:30:41.916Z,26.51
2019-03-10T14:33:10.996Z,25.95
2019-03-10T14:35:40.122Z,25.85
2019-03-10T14:38:09.182Z,25.63
2019-03-10T14:40:38.246Z,25.39
2019-03-10T14:43:07.386Z,25.33
2019-03-10T14:45:36.829Z,25.26
2019-03-10T14:48:06.176Z,25.46
2019-03-10T14:50:35.542Z,25.33
2019-03-10T14:53:05.001Z,25.27
2019-03-10T14:55:34.399Z,25.06
2019-03-10T14:58:03.828Z,24.86
2019-03-10T15:00:32.956Z,24.90
2019-03-10T15:03:02.385Z,24.85
2019-03-10T15:05:31.800Z,25.07
2019-03-10T15:08:00.988Z,25.19
2019-03-10T15:10:30.137Z,25.07
2019-03-10T15:12:59.574Z,24.94
2019-03-10T15:15:29.004Z,24.94
2019-03-10T15:17:58.424Z,24.48
2019-03-10T15:20:27.856Z,24.29
2019-03-10T15:22:57.295Z,24.11
2019-03-10T15:25:26.726Z,23.95
2019-03-10T15:27:56.179Z,23.91
2019-03-10T15:30:27.543Z,23.76
2019-03-10T15:32:56.983Z,23.62
2019-03-10T15:35:26.360Z,23.19
2019-03-10T15:37:55.793Z,23.19
2019-03-10T15:40:25.226Z,22.99
2019-03-10T15:42:54.665Z,22.87
2019-03-10T15:45:24.091Z,22.60
2019-03-10T15:47:53.532Z,22.60
2019-03-10T15:50:31.033Z,22.42
2019-03-10T15:53:00.164Z,22.42
2019-03-10T15:55:29.634Z,22.21
2019-03-10T15:57:59.008Z,21.89
2019-03-10T16:00:28.843Z,21.89
2019-03-10T16:02:58.252Z,21.71
2019-03-10T16:05:27.789Z,21.55
2019-03-10T16:07:57.224Z,21.24
2019-03-10T16:10:26.695Z,20.89
2019-03-10T16:12:56.064Z,20.69
2019-03-10T16:15:27.437Z,20.65
2019-03-10T16:17:56.876Z,20.69
2019-03-10T16:20:26.307Z,20.58
2019-03-10T16:22:55.758Z,20.48
2019-03-10T16:25:25.124Z,20.31
2019-03-10T16:27:54.492Z,20.15
2019-03-10T16:30:25.225Z,20.03
2019-03-10T16:32:54.660Z,19.90
2019-03-10T16:35:24.098Z,19.78
2019-03-10T16:37:53.535Z,19.63
2019-03-10T16:40:24.469Z,19.51
2019-03-10T16:42:53.919Z,19.42
2019-03-10T16:45:24.252Z,19.37
2019-03-10T16:47:53.687Z,19.24
2019-03-10T16:50:25.358Z,19.14
2019-03-10T16:52:54.732Z,19.04
2019-03-10T16:55:24.274Z,18.81
2019-03-10T16:57:53.729Z,18.75
2019-03-10T17:00:23.165Z,18.67
2019-03-10T17:02:52.850Z,18.61
2019-03-10T17:05:22.964Z,18.49
2019-03-10T17:07:52.526Z,18.46
2019-03-10T17:10:23.053Z,18.40
2019-03-10T17:12:52.544Z,18.27
2019-03-10T17:15:23.199Z,18.10
2019-03-10T17:17:52.853Z,18.00
2019-03-10T17:20:22.238Z,17.96
2019-03-10T17:22:51.730Z,17.80
2019-03-10T17:25:21.187Z,17.69
2019-03-10T17:27:50.627Z,17.66
2019-03-10T17:30:21.825Z,17.62
2019-03-10T17:32:51.500Z,17.48
2019-03-10T17:35:21.693Z,17.34
2019-03-10T17:37:51.134Z,17.26
2019-03-10T17:40:21.384Z,17.17
2019-03-10T17:42:50.938Z,17.09
2019-03-10T17:45:26.762Z,16.97
2019-03-10T17:47:56.194Z,16.93
2019-03-10T17:50:25.646Z,16.89
2019-03-10T17:52:55.136Z,16.87
2019-03-10T17:55:25.779Z,16.83
2019-03-10T17:57:55.238Z,16.76
2019-03-10T18:00:35.344Z,16.65
2019-03-10T18:03:04.806Z,16.68
2019-03-10T18:05:34.275Z,16.59
2019-03-10T18:08:03.715Z,16.58
2019-03-10T18:10:33.104Z,16.46
2019-03-10T18:13:02.576Z,16.48
2019-03-10T18:15:32.303Z,16.51
2019-03-10T18:18:01.872Z,16.51
2019-03-10T18:20:31.392Z,16.59
2019-03-10T18:23:00.845Z,16.56
2019-03-10T18:25:31.171Z,16.44
2019-03-10T18:28:00.626Z,16.35
2019-03-10T18:30:30.170Z,16.22
2019-03-10T18:32:59.707Z,16.26
2019-03-10T18:35:29.156Z,16.30
2019-03-10T18:37:58.620Z,16.33
2019-03-10T18:40:28.615Z,16.15
2019-03-10T18:42:57.767Z,16.12
2019-03-10T18:45:27.220Z,16.12
2019-03-10T18:47:56.678Z,16.10
2019-03-10T18:50:27.945Z,16.05
2019-03-10T18:52:57.342Z,16.08
2019-03-10T18:55:26.794Z,15.81
2019-03-10T18:57:56.178Z,15.67
2019-03-10T19:00:28.775Z,15.61
2019-03-10T19:02:58.228Z,15.50
2019-03-10T19:05:27.692Z,15.36
2019-03-10T19:07:57.165Z,15.08
2019-03-10T19:10:26.625Z,15.02
2019-03-10T19:12:56.084Z,14.83
2019-03-10T19:15:26.750Z,14.52
2019-03-10T19:17:56.208Z,14.15
2019-03-10T19:20:25.666Z,13.99
2019-03-10T19:22:55.146Z,13.97
2019-03-10T19:25:24.598Z,13.99
2019-03-10T19:27:55.782Z,14.02
2019-03-10T19:30:25.741Z,13.93
2019-03-10T19:32:55.207Z,13.79
2019-03-10T19:35:24.682Z,13.70
2019-03-10T19:37:55.598Z,13.53
2019-03-10T19:40:25.064Z,13.43
2019-03-10T19:42:54.533Z,13.38
2019-03-10T19:45:24.681Z,13.39
2019-03-10T19:47:54.065Z,13.46
2019-03-10T19:50:27.434Z,13.32
2019-03-10T19:52:56.676Z,13.21
2019-03-10T19:55:26.138Z,12.97
2019-03-10T19:57:55.575Z,13.25
2019-03-10T20:00:25.013Z,13.18
2019-03-10T20:02:54.473Z,13.13
2019-03-10T20:05:23.951Z,13.05
2019-03-10T20:07:53.460Z,13.04
2019-03-10T20:10:24.308Z,13.03
2019-03-10T20:12:53.749Z,12.88
2019-03-10T20:15:26.203Z,12.83
2019-03-10T20:17:55.635Z,12.66
2019-03-10T20:20:30.156Z,12.54
2019-03-10T20:23:01.164Z,12.53
2019-03-10T20:25:30.833Z,12.58
2019-03-10T20:28:00.211Z,12.70
2019-03-10T20:30:29.900Z,12.74
2019-03-10T20:32:59.372Z,12.68
2019-03-10T20:35:28.813Z,12.58
2019-03-10T20:37:58.236Z,12.55
2019-03-10T20:40:28.492Z,12.63
2019-03-10T20:42:57.933Z,12.65
2019-03-10T20:45:27.395Z,12.47
2019-03-10T20:47:57.032Z,12.38
2019-03-10T20:50:26.461Z,12.39
2019-03-10T20:52:55.897Z,12.42
2019-03-10T20:55:25.360Z,12.43
2019-03-10T20:57:54.801Z,12.43
2019-03-10T21:00:28.600Z,12.50
2019-03-10T21:02:58.063Z,12.47
2019-03-10T21:05:27.507Z,12.53
2019-03-10T21:07:56.956Z,12.52
2019-03-10T21:10:27.490Z,12.49
2019-03-10T21:12:56.869Z,12.48
2019-03-10T21:15:26.854Z,12.44
2019-03-10T21:17:56.392Z,12.29
2019-03-10T21:20:26.422Z,12.26
2019-03-10T21:22:55.862Z,12.19
2019-03-10T21:25:26.692Z,12.17
2019-03-10T21:27:56.113Z,12.17
2019-03-10T21:30:32.608Z,12.17
2019-03-10T21:33:02.031Z,12.14
2019-03-10T21:35:33.265Z,12.16
2019-03-10T21:38:02.622Z,12.28
2019-03-10T21:40:35.087Z,12.36
2019-03-10T21:43:04.650Z,12.31
2019-03-10T21:45:34.370Z,12.18
2019-03-10T21:48:03.828Z,12.09
2019-03-10T21:50:33.268Z,12.10
2019-03-10T21:53:02.728Z,12.07
2019-03-10T21:55:32.164Z,12.05
2019-03-10T21:58:01.604Z,11.97
2019-03-10T22:00:31.049Z,11.91
2019-03-10T22:03:00.514Z,11.83
2019-03-10T22:05:29.953Z,11.75
2019-03-10T22:07:59.387Z,11.63
2019-03-10T22:10:28.759Z,11.66
2019-03-10T22:12:58.199Z,11.67
2019-03-10T22:15:27.638Z,11.62
2019-03-10T22:17:57.072Z,11.39
2019-03-10T22:20:26.501Z,11.33
2019-03-10T22:22:55.963Z,11.38
2019-03-10T22:25:25.388Z,11.51
2019-03-10T22:27:54.855Z,11.50
2019-03-10T22:30:24.532Z,11.53
2019-03-10T22:32:53.923Z,11.54
2019-03-10T22:35:23.366Z,11.49
2019-03-10T22:37:52.800Z,11.40
2019-03-10T22:40:22.243Z,11.38
2019-03-10T22:42:51.677Z,11.33
2019-03-10T22:45:21.316Z,11.21
2019-03-10T22:47:50.753Z,11.00
2019-03-10T22:50:20.182Z,10.76
2019-03-10T22:52:49.618Z,10.74
2019-03-10T22:55:19.069Z,10.82
2019-03-10T22:57:48.516Z,10.83
2019-03-10T23:00:20.769Z,10.76
2019-03-10T23:02:50.225Z,10.72
2019-03-10T23:05:19.705Z,10.76
2019-03-10T23:07:49.133Z,10.72
2019-03-10T23:10:18.676Z,10.64
2019-03-10T23:12:48.062Z,10.52
2019-03-10T23:15:17.495Z,10.53
2019-03-10T23:17:46.861Z,10.46
2019-03-10T23:20:16.824Z,10.31
2019-03-10T23:22:46.262Z,9.93
2019-03-10T23:25:15.700Z,9.72
2019-03-10T23:27:45.120Z,9.65
2019-03-10T23:30:18.947Z,9.70
2019-03-10T23:32:48.392Z,9.80
2019-03-10T23:35:17.902Z,9.94
2019-03-10T23:37:47.360Z,9.94
2019-03-10T23:40:17.750Z,9.95
2019-03-10T23:42:47.218Z,10.08
2019-03-10T23:45:17.546Z,10.13
2019-03-10T23:47:47.394Z,10.05
2019-03-10T23:50:18.147Z,9.98
2019-03-10T23:52:47.566Z,9.98
2019-03-10T23:55:17.010Z,9.98
2019-03-10T23:57:46.822Z,9.79
